Time;durP1;ratioP1;P1;durP2;ratioP2;P2;SDS_P1;SDS_P2;PMS_P1;PMS_P2;Temp;Humidity;BMP_temperature;BMP_pressure;BME280_temperature;BME280_humidity;BME280_pressure;Samples;Min_cycle;Max_cycle;Signal;HPM_P1;HPM_P2
2023/10/17 00:01:52;;;;;;;13.77;12.40;;;;;;;6.54;91.20;101787.78;4880913;29;20575;-70
2023/10/17 00:06:47;;;;;;;17.23;13.53;;;;;;;6.59;90.96;101791.00;4880009;29;20303;-70
2023/10/17 00:09:24;;;;;;;21.17;14.63;;;;;;;6.54;90.96;101785.13;4880497;29;20203;-70
2023/10/17 00:14:25;;;;;;;14.47;13.10;;;;;;;6.51;91.05;101795.09;4879940;29;20592;-70
2023/10/17 00:16:54;;;;;;;16.13;13.37;;;;;;;6.51;91.08;101800.41;4879872;29;20265;-70
2023/10/17 00:19:26;;;;;;;14.70;13.23;;;;;;;6.54;91.29;101800.22;4879807;29;20242;-70
2023/10/17 00:21:52;;;;;;;17.90;14.40;;;;;;;6.56;90.67;101793.00;4880103;29;20302;-70
2023/10/17 00:24:19;;;;;;;19.10;13.30;;;;;;;6.57;90.99;101789.41;4880218;29;20220;-70
2023/10/17 00:26:47;;;;;;;18.13;14.43;;;;;;;6.57;90.97;101784.09;4879656;29;20255;-70
2023/10/17 00:29:14;;;;;;;18.83;13.77;;;;;;;6.53;90.39;101779.94;4879694;29;20241;-70
2023/10/17 00:31:43;;;;;;;16.67;13.97;;;;;;;6.49;90.97;101778.44;4879656;29;20197;-70
2023/10/17 00:34:13;;;;;;;16.67;13.87;;;;;;;6.47;91.24;101777.66;4880172;29;20240;-70
2023/10/17 00:36:47;;;;;;;13.53;12.33;;;;;;;6.47;91.33;101775.00;4879622;29;20307;-69
2023/10/17 00:39:22;;;;;;;14.13;12.67;;;;;;;6.45;90.92;101771.63;4880137;29;20219;-69
2023/10/17 00:42:09;;;;;;;16.67;13.63;;;;;;;6.44;90.78;101770.75;4877668;29;20567;-69
2023/10/17 00:44:38;;;;;;;20.43;13.77;;;;;;;6.47;90.83;101769.69;4880021;29;20201;-69
2023/10/17 00:47:18;;;;;;;16.20;13.33;;;;;;;6.48;90.96;101766.94;4878212;29;20225;-69
2023/10/17 00:49:45;;;;;;;14.97;13.47;;;;;;;6.51;90.93;101763.22;4878294;29;20193;-69
2023/10/17 00:52:24;;;;;;;21.17;14.37;;;;;;;6.53;91.40;101761.34;4879480;29;20201;-70
2023/10/17 00:54:53;;;;;;;15.00;12.10;;;;;;;6.53;90.73;101770.16;4879758;29;20182;-70
2023/10/17 00:57:22;;;;;;;13.00;11.70;;;;;;;6.52;90.76;101762.28;4879543;29;20205;-69
2023/10/17 00:59:53;;;;;;;22.17;14.50;;;;;;;6.53;91.02;101770.16;4879728;29;20185;-69
2023/10/17 01:02:23;;;;;;;16.90;14.10;;;;;;;6.53;90.98;101769.31;4879662;29;20182;-69
2023/10/17 01:04:52;;;;;;;13.97;12.70;;;;;;;6.57;91.10;101766.34;4879233;29;20682;-69
2023/10/17 01:07:34;;;;;;;14.93;12.93;;;;;;;6.57;90.80;101761.03;4879281;29;20254;-69
2023/10/17 01:10:26;;;;;;;14.57;13.07;;;;;;;6.59;91.24;101774.19;4878081;29;20719;-69
2023/10/17 01:12:53;;;;;;;25.43;14.47;;;;;;;6.59;90.70;101768.88;4879491;29;20197;-69
2023/10/17 01:15:22;;;;;;;15.67;13.70;;;;;;;6.59;91.10;101763.56;4877966;29;20232;-69
2023/10/17 01:17:53;;;;;;;23.50;15.60;;;;;;;6.57;91.46;101768.16;4879229;29;20232;-69
2023/10/17 01:20:21;;;;;;;19.93;16.13;;;;;;;6.52;91.26;101763.16;4879257;29;20178;-69
2023/10/17 01:22:48;;;;;;;17.47;13.77;;;;;;;6.54;91.51;101758.56;4879177;29;20196;-69
2023/10/17 01:25:34;;;;;;;15.57;13.90;;;;;;;6.56;91.42;101759.34;4877764;29;20252;-69
2023/10/17 01:28:03;;;;;;;22.97;15.87;;;;;;;6.60;91.43;101757.31;4877977;29;20201;-69
2023/10/17 01:30:30;;;;;;;22.30;16.70;;;;;;;6.63;91.80;101765.06;4877920;29;20193;-69
2023/10/17 01:32:57;;;;;;;21.83;15.63;;;;;;;6.63;91.83;101754.44;4879195;29;20197;-69
2023/10/17 01:35:24;;;;;;;31.10;17.97;;;;;;;6.64;91.96;101754.38;4879065;29;20638;-69
2023/10/17 01:37:52;;;;;;;25.20;17.40;;;;;;;6.67;91.43;101756.81;4877857;29;20202;-69
2023/10/17 01:40:28;;;;;;;25.97;18.03;;;;;;;6.66;91.96;101754.28;4879064;29;20190;-69
2023/10/17 01:42:59;;;;;;;25.43;18.17;;;;;;;6.64;91.66;101751.72;4879580;29;20233;-69
2023/10/17 01:45:27;;;;;;;23.97;17.20;;;;;;;6.64;92.02;101750.84;4879152;29;20308;-69
2023/10/17 01:47:55;;;;;;;19.97;17.37;;;;;;;6.60;92.04;101739.56;4878281;29;20205;-69
2023/10/17 01:50:24;;;;;;;21.53;16.50;;;;;;;6.60;91.82;101744.88;4878987;29;20197;-69
2023/10/17 01:52:54;;;;;;;26.33;16.70;;;;;;;6.60;91.95;101736.91;4880113;29;20189;-70
2023/10/17 01:55:25;;;;;;;20.63;15.93;;;;;;;6.63;92.46;101739.38;4882269;29;20233;-69
2023/10/17 01:57:54;;;;;;;20.37;15.43;;;;;;;6.62;92.21;101736.84;4881001;29;20574;-70
2023/10/17 02:00:39;;;;;;;24.20;15.97;;;;;;;6.66;92.13;101738.34;4881002;29;20197;-70
2023/10/17 02:03:05;;;;;;;27.57;16.07;;;;;;;6.69;92.05;101743.44;4882505;29;20200;-70
2023/10/17 02:05:34;;;;;;;22.03;15.63;;;;;;;6.68;92.47;101734.59;4882550;29;20246;-69
2023/10/17 02:08:01;;;;;;;17.53;15.73;;;;;;;6.68;92.44;101747.03;4882647;29;20262;-70
2023/10/17 02:10:31;;;;;;;25.27;15.80;;;;;;;6.66;92.64;101735.66;4880804;29;20288;-70
2023/10/17 02:12:57;;;;;;;22.27;15.63;;;;;;;6.67;92.30;101734.69;4882230;29;20205;-70
2023/10/17 02:15:26;;;;;;;21.40;14.40;;;;;;;6.66;92.52;101735.66;4880667;29;20252;-69
2023/10/17 02:17:57;;;;;;;21.50;16.60;;;;;;;6.61;92.49;101732.47;4881860;29;20205;-69
2023/10/17 02:20:36;;;;;;;17.00;14.93;;;;;;;6.58;92.23;101732.66;4882149;29;20188;-69
2023/10/17 02:23:08;;;;;;;19.63;15.60;;;;;;;6.56;92.19;101739.88;4882408;29;20177;-69
2023/10/17 02:25:36;;;;;;;17.47;15.03;;;;;;;6.54;92.76;101728.50;4881871;29;20295;-69
2023/10/17 02:28:04;;;;;;;21.57;14.67;;;;;;;6.57;92.06;101736.28;4880532;29;20554;-69
2023/10/17 02:30:31;;;;;;;20.03;15.33;;;;;;;6.55;92.14;101736.38;4881706;29;20185;-69
2023/10/17 02:32:59;;;;;;;19.37;15.90;;;;;;;6.56;92.33;101739.88;4881937;29;20585;-69
2023/10/17 02:35:42;;;;;;;17.27;14.37;;;;;;;6.55;92.23;101732.84;4880482;29;20225;-69
2023/10/17 02:38:08;;;;;;;23.27;18.93;;;;;;;6.57;92.55;101729.16;4881896;29;20261;-69
2023/10/17 02:40:40;;;;;;;25.03;19.33;;;;;;;6.60;92.23;101736.91;4880309;29;20613;-70
2023/10/17 02:43:12;;;;;;;26.97;18.63;;;;;;;6.58;92.30;101736.16;4881516;29;20189;-70
2023/10/17 02:45:41;;;;;;;19.53;16.93;;;;;;;6.59;92.00;101740.53;4881555;29;20220;-69
2023/10/17 02:48:25;;;;;;;18.23;15.83;;;;;;;6.59;92.50;101735.22;4880162;29;20201;-70
2023/10/17 02:50:58;;;;;;;17.60;15.73;;;;;;;6.61;92.59;101729.81;4881369;29;20189;-70
2023/10/17 02:53:29;;;;;;;20.37;16.57;;;;;;;6.61;92.19;101737.78;4881600;29;20257;-70
2023/10/17 02:55:58;;;;;;;19.43;14.97;;;;;;;6.62;92.66;101742.16;4881713;29;20205;-70
2023/10/17 02:58:24;;;;;;;18.30;14.90;;;;;;;6.61;92.06;101738.63;4879870;29;20211;-70
2023/10/17 03:00:51;;;;;;;22.00;16.63;;;;;;;6.56;92.37;101734.56;4879945;29;20197;-70
2023/10/17 03:03:19;;;;;;;15.73;14.23;;;;;;;6.51;91.94;101724.25;4879874;29;20712;-70
2023/10/17 03:05:53;;;;;;;18.40;16.03;;;;;;;6.43;92.32;101723.91;4879003;29;20225;-70
2023/10/17 03:08:19;;;;;;;20.63;15.60;;;;;;;6.32;92.43;101716.63;4881606;29;20543;-70
2023/10/17 03:10:47;;;;;;;21.27;16.63;;;;;;;6.28;92.00;101712.47;4881141;29;20204;-70
2023/10/17 03:15:55;;;;;;;18.27;15.33;;;;;;;6.28;92.76;101720.44;4881143;29;20288;-69
2023/10/17 03:18:23;;;;;;;27.43;17.47;;;;;;;6.24;92.74;101715.41;4879679;29;20222;-69
2023/10/17 03:20:50;;;;;;;19.63;17.10;;;;;;;6.20;92.47;101704.13;4880812;29;20272;-69
2023/10/17 03:23:27;;;;;;;23.03;17.17;;;;;;;6.21;92.39;101715.63;4881028;29;20193;-69
2023/10/17 03:26:00;;;;;;;21.73;17.83;;;;;;;6.18;92.47;101721.13;4881157;29;20699;-69
2023/10/17 03:28:29;;;;;;;23.87;16.10;;;;;;;6.17;93.06;101711.47;4880948;29;20195;-69
2023/10/17 03:30:55;;;;;;;23.27;17.83;;;;;;;6.14;92.88;101706.34;4880900;29;20208;-69
2023/10/17 03:33:32;;;;;;;24.87;17.00;;;;;;;6.11;92.81;101696.78;4879356;29;20205;-69
2023/10/17 03:38:33;;;;;;;19.60;16.00;;;;;;;6.17;92.64;101704.34;4879259;29;20193;-69
2023/10/17 03:41:15;;;;;;;22.40;16.67;;;;;;;6.22;92.83;101706.72;4880768;29;20186;-69
2023/10/17 03:43:51;;;;;;;18.73;15.57;;;;;;;6.24;92.90;101716.25;4880763;29;20188;-69
2023/10/17 03:46:19;;;;;;;33.47;17.23;;;;;;;6.22;92.52;101718.19;4880397;29;20216;-70
2023/10/17 03:48:57;;;;;;;19.40;16.30;;;;;;;6.22;92.25;101710.22;4880365;29;20630;-70
2023/10/17 03:51:25;;;;;;;16.73;14.97;;;;;;;6.24;92.58;101716.25;4880283;29;20260;-70
2023/10/17 03:53:53;;;;;;;23.30;17.73;;;;;;;6.23;92.25;101706.63;4880231;29;20189;-70
2023/10/17 03:56:23;;;;;;;22.97;17.00;;;;;;;6.19;92.69;101707.78;4880167;29;20213;-69
2023/10/17 04:01:39;;;;;;;20.20;16.43;;;;;;;6.23;92.40;101719.91;4880657;29;20193;-70
2023/10/17 04:04:07;;;;;;;21.77;17.23;;;;;;;6.23;92.21;101714.59;4880244;29;20672;-70
2023/10/17 04:06:51;;;;;;;23.03;17.13;;;;;;;6.23;92.32;101719.03;4880048;29;20272;-69
2023/10/17 04:09:27;;;;;;;20.90;16.23;;;;;;;6.21;92.15;101723.59;4880017;29;20202;-69
2023/10/17 04:12:03;;;;;;;23.67;18.10;;;;;;;6.21;92.39;101731.53;4880242;29;20646;-69
2023/10/17 04:14:33;;;;;;;26.77;18.77;;;;;;;6.20;92.49;101728.03;4880466;29;20177;-70
2023/10/17 04:17:03;;;;;;;30.80;18.80;;;;;;;6.17;92.37;101730.91;4879820;29;20217;-70
2023/10/17 04:19:32;;;;;;;22.90;17.73;;;;;;;6.16;92.93;101728.34;4879825;29;20193;-70
2023/10/17 04:24:47;;;;;;;22.87;17.60;;;;;;;6.12;92.85;101727.69;4880250;29;20280;-70
2023/10/17 04:29:44;;;;;;;26.17;18.87;;;;;;;6.07;93.06;101727.13;4880205;29;20729;-70
2023/10/17 04:32:13;;;;;;;23.10;17.33;;;;;;;6.06;92.89;101733.41;4879977;29;20206;-69
2023/10/17 04:34:45;;;;;;;23.00;16.47;;;;;;;6.10;93.28;101734.91;4879595;29;20200;-69
2023/10/17 04:37:16;;;;;;;22.03;16.77;;;;;;;6.11;93.09;101741.91;4879585;29;20610;-69
2023/10/17 04:45:19;;;;;;;24.17;18.20;;;;;;;6.10;92.60;101729.59;4879920;29;20240;-69
2023/10/17 04:47:47;;;;;;;29.73;16.83;;;;;;;6.12;92.46;101730.34;4879431;29;20197;-69
2023/10/17 04:50:13;;;;;;;22.80;17.27;;;;;;;6.08;92.66;101733.28;4879410;29;20276;-69
2023/10/17 04:52:44;;;;;;;20.10;16.77;;;;;;;6.10;92.62;101734.91;4879398;29;20196;-69
2023/10/17 04:55:30;;;;;;;27.47;18.80;;;;;;;6.06;92.69;101735.19;4879364;29;20205;-69
2023/10/17 04:57:58;;;;;;;30.90;17.70;;;;;;;6.05;93.04;101736.16;4879497;29;20208;-69
2023/10/17 05:00:43;;;;;;;29.17;18.97;;;;;;;6.02;93.38;101736.34;4879822;29;20201;-69
2023/10/17 06:17:53;;;;;;;24.07;18.17;;;;;;;6.01;92.69;101751.41;4881960;29;20225;-69
2023/10/17 06:20:27;;;;;;;28.67;18.70;;;;;;;6.01;92.69;101759.38;4881865;29;20197;-69
2023/10/17 06:28:25;;;;;;;26.20;17.50;;;;;;;6.02;92.99;101758.44;4882020;29;20229;-69
2023/10/17 06:33:37;;;;;;;25.20;17.97;;;;;;;6.09;92.69;101759.75;4882205;29;20178;-69
2023/10/17 06:36:40;;;;;;;31.10;18.53;;;;;;;6.08;93.11;101757.19;4881540;29;20211;-69
2023/10/17 06:38:57;;;;;;;24.70;19.23;;;;;;;6.12;92.52;101767.50;4878236;29;20791;-69
2023/10/17 06:41:38;;;;;;;23.23;17.90;;;;;;;6.12;92.52;101769.31;4881170;29;20194;-69
2023/10/17 06:44:05;;;;;;;27.00;18.33;;;;;;;6.13;92.65;101763.91;4881802;29;20268;-69
2023/10/17 06:54:41;;;;;;;28.40;19.50;;;;;;;6.10;92.91;101761.47;4881922;29;20173;-70
2023/10/17 06:57:23;;;;;;;28.40;18.67;;;;;;;6.12;93.23;101759.53;4881705;29;20236;-70
2023/10/17 06:59:54;;;;;;;27.77;18.63;;;;;;;6.13;92.88;101761.25;4881729;29;20630;-70
2023/10/17 07:02:28;;;;;;;27.07;18.33;;;;;;;6.16;93.39;101758.41;4881485;29;20523;-70
2023/10/17 07:04:56;;;;;;;22.53;16.47;;;;;;;6.17;93.08;101748.63;4881279;29;20209;-70
2023/10/17 07:07:23;;;;;;;25.50;18.93;;;;;;;6.20;92.92;101753.72;4881370;29;20193;-70
2023/10/17 07:10:07;;;;;;;31.10;18.33;;;;;;;6.22;93.03;101746.53;4880988;29;20189;-70
2023/10/17 07:12:38;;;;;;;26.80;20.07;;;;;;;6.23;92.83;101749.09;4881548;29;20260;-70
2023/10/17 07:15:12;;;;;;;26.53;18.83;;;;;;;6.23;93.19;101743.78;4880898;29;20173;-69
2023/10/17 07:17:49;;;;;;;28.53;20.10;;;;;;;6.27;92.85;101747.09;4880823;29;20196;-69
2023/10/17 07:21:09;;;;;;;35.10;20.27;;;;;;;6.29;93.38;101754.00;4880845;29;20583;-69
2023/10/17 07:23:13;;;;;;;35.00;19.73;;;;;;;6.34;92.84;101754.56;4881255;29;20218;-69
2023/10/17 07:25:40;;;;;;;27.13;18.27;;;;;;;6.37;92.82;101743.72;4881154;29;20697;-69
2023/10/17 07:28:10;;;;;;;34.43;20.63;;;;;;;6.41;92.98;101750.53;4880725;29;20205;-69
2023/10/17 07:30:49;;;;;;;28.97;20.60;;;;;;;6.46;92.61;101747.59;4880634;29;20205;-69
2023/10/17 07:33:17;;;;;;;33.40;19.17;;;;;;;6.51;92.75;101747.28;4880962;29;20185;-69
2023/10/17 07:35:44;;;;;;;27.67;20.17;;;;;;;6.50;93.24;101745.59;4880760;29;20572;-69
2023/10/17 07:38:14;;;;;;;26.07;18.97;;;;;;;6.53;92.75;101740.94;4880695;29;20566;-69
2023/10/17 07:43:10;;;;;;;36.43;19.03;;;;;;;6.64;92.65;101743.72;4880667;29;20208;-69
2023/10/17 07:45:39;;;;;;;28.97;20.33;;;;;;;6.62;92.39;101750.94;4880260;29;20231;-69
2023/10/17 07:48:20;;;;;;;24.93;18.67;;;;;;;6.58;92.06;101751.25;4880391;29;20658;-69
2023/10/17 07:50:50;;;;;;;30.93;20.47;;;;;;;6.62;92.49;101755.44;4880329;29;20192;-69
2023/10/17 07:53:21;;;;;;;29.77;19.53;;;;;;;6.63;92.16;101751.78;4880428;29;20189;-69
2023/10/17 07:56:04;;;;;;;26.00;18.60;;;;;;;6.67;91.85;101754.16;4880357;29;20213;-69
2023/10/17 07:59:18;;;;;;;28.50;17.40;;;;;;;6.67;91.87;101751.50;4880197;29;20261;-70
2023/10/17 08:01:18;;;;;;;31.80;19.23;;;;;;;6.72;91.58;101762.69;4873710;29;20611;-70
2023/10/17 08:03:57;;;;;;;27.83;18.57;;;;;;;6.73;91.29;101759.06;4880337;29;20203;-70
2023/10/17 08:06:29;;;;;;;38.60;20.13;;;;;;;6.80;91.69;101755.03;4880031;29;20223;-69
2023/10/17 08:08:58;;;;;;;28.57;18.70;;;;;;;6.87;91.23;101753.66;4880300;29;20249;-69
2023/10/17 08:11:28;;;;;;;23.03;19.03;;;;;;;6.92;90.86;101761.34;4879930;29;20193;-69
2023/10/17 08:13:56;;;;;;;25.47;19.20;;;;;;;6.96;90.75;101756.69;4880663;29;20193;-69
2023/10/17 08:16:28;;;;;;;33.13;19.33;;;;;;;6.92;90.71;101756.03;4879826;29;20205;-69
2023/10/17 08:19:12;;;;;;;29.37;20.57;;;;;;;7.04;90.76;101755.22;4880437;29;20209;-70
2023/10/17 08:21:48;;;;;;;35.20;20.20;;;;;;;7.07;90.59;101757.66;4880015;29;20213;-70
2023/10/17 08:24:25;;;;;;;30.77;19.37;;;;;;;7.14;90.20;101750.97;4880292;29;20622;-70
2023/10/17 08:29:38;;;;;;;35.43;18.87;;;;;;;7.28;90.09;101736.72;4879998;29;20195;-69
2023/10/17 08:34:59;;;;;;;29.83;19.43;;;;;;;7.48;90.02;101728.22;4879897;29;20197;-70
2023/10/17 08:37:28;;;;;;;38.63;20.87;;;;;;;7.56;89.22;101731.19;4879658;29;20177;-69
2023/10/17 08:39:56;;;;;;;31.97;20.30;;;;;;;7.62;88.90;101725.44;4880103;29;20248;-69
2023/10/17 08:45:04;;;;;;;29.60;20.00;;;;;;;7.83;88.04;101728.38;4879424;29;20272;-70
2023/10/17 08:47:30;;;;;;;29.13;19.00;;;;;;;7.85;87.90;101729.09;4879960;29;20201;-69
2023/10/17 08:50:02;;;;;;;34.00;20.17;;;;;;;7.87;87.31;101724.53;4880213;29;20595;-69
2023/10/17 08:52:34;;;;;;;38.67;20.53;;;;;;;7.94;87.23;101723.13;4879705;29;20517;-69
2023/10/17 08:55:05;;;;;;;34.60;19.27;;;;;;;8.04;86.96;101728.66;4879475;29;20197;-69
2023/10/17 08:57:32;;;;;;;31.83;19.57;;;;;;;8.12;86.45;101720.94;4879482;29;20204;-69
2023/10/17 09:00:14;;;;;;;26.80;18.70;;;;;;;8.19;86.09;101727.53;4879940;29;20177;-69
2023/10/17 09:02:43;;;;;;;28.97;17.33;;;;;;;8.33;85.79;101731.88;4880366;29;20185;-69
2023/10/17 09:05:17;;;;;;;32.43;18.63;;;;;;;8.38;84.99;101727.06;4883141;29;20189;-68
2023/10/17 09:07:48;;;;;;;25.33;17.93;;;;;;;8.50;84.95;101731.50;4883330;29;20173;-69
2023/10/17 09:10:43;;;;;;;22.43;17.27;;;;;;;8.61;84.28;101734.22;4883113;29;20248;-69
2023/10/17 09:15:57;;;;;;;23.77;16.77;;;;;;;8.75;83.53;101738.50;4883341;29;20588;-69
2023/10/17 09:18:28;;;;;;;23.67;16.13;;;;;;;8.87;83.00;101733.09;4883346;29;20181;-69
2023/10/17 09:20:56;;;;;;;17.27;15.47;;;;;;;8.89;82.34;101733.84;4883030;29;20201;-69
2023/10/17 09:23:26;;;;;;;21.20;15.73;;;;;;;9.03;82.51;101735.47;4882950;29;20209;-69
2023/10/17 09:25:54;;;;;;;19.13;14.93;;;;;;;9.10;81.54;101732.22;4883023;29;20213;-70
2023/10/17 09:28:28;;;;;;;20.70;15.50;;;;;;;9.26;81.54;101726.53;4882820;29;20189;-69
2023/10/17 09:31:08;;;;;;;20.20;14.77;;;;;;;9.25;80.45;101724.00;4882854;29;20185;-69
2023/10/17 09:33:43;;;;;;;23.57;15.67;;;;;;;9.27;80.14;101730.91;4883066;29;20280;-69
2023/10/17 09:36:17;;;;;;;23.30;15.27;;;;;;;9.36;80.02;101726.69;4882604;29;20240;-69
2023/10/17 09:38:45;;;;;;;19.20;13.23;;;;;;;9.44;79.62;101716.25;4882934;29;20192;-69
2023/10/17 09:41:19;;;;;;;16.53;13.90;;;;;;;9.48;79.11;101721.22;4882628;29;20257;-69
2023/10/17 09:43:53;;;;;;;19.50;14.73;;;;;;;9.60;79.09;101708.72;4882638;29;20241;-69
2023/10/17 09:46:25;;;;;;;15.30;13.90;;;;;;;9.73;78.84;101709.47;4882538;29;20225;-69
2023/10/17 09:48:53;;;;;;;20.00;13.00;;;;;;;9.77;78.43;101716.25;4882507;29;20534;-69
2023/10/17 09:51:27;;;;;;;13.37;12.17;;;;;;;9.80;76.98;101713.31;4882412;29;20197;-69
2023/10/17 09:53:58;;;;;;;15.10;11.87;;;;;;;9.93;77.06;101699.88;4882463;29;20189;-69
2023/10/17 09:56:29;;;;;;;12.97;11.70;;;;;;;10.01;77.07;101708.94;4882282;29;20209;-69
2023/10/17 09:59:12;;;;;;;13.40;12.17;;;;;;;10.21;76.58;101703.84;4882356;29;20249;-69
2023/10/17 10:01:40;;;;;;;18.40;12.10;;;;;;;10.27;75.75;101700.69;4882550;29;20190;-69
2023/10/17 10:04:07;;;;;;;12.63;11.53;;;;;;;10.32;75.98;101703.78;4882729;29;20193;-69
2023/10/17 10:06:36;;;;;;;11.43;10.37;;;;;;;10.40;76.56;101704.88;4882304;29;20221;-69
2023/10/17 10:09:06;;;;;;;11.97;11.07;;;;;;;10.47;75.87;101702.56;4882136;29;20232;-69
2023/10/17 10:11:48;;;;;;;11.37;10.40;;;;;;;10.50;74.23;101694.25;4882104;29;20220;-69
2023/10/17 10:14:15;;;;;;;13.07;11.73;;;;;;;10.55;73.51;101700.09;4882175;29;20556;-69
2023/10/17 10:16:55;;;;;;;12.37;9.77;;;;;;;10.64;73.61;101685.09;4881976;29;20697;-69
2023/10/17 10:19:41;;;;;;;11.53;10.40;;;;;;;10.78;73.09;101700.81;4882215;29;20583;-69
2023/10/17 10:22:12;;;;;;;10.73;9.80;;;;;;;10.74;72.10;101705.56;4881849;29;20193;-69
2023/10/17 10:24:41;;;;;;;9.93;9.33;;;;;;;10.75;71.41;101699.25;4881950;29;20220;-70
2023/10/17 10:27:08;;;;;;;9.13;8.63;;;;;;;10.78;72.34;101700.81;4881581;29;20217;-69
2023/10/17 10:29:35;;;;;;;12.30;10.77;;;;;;;10.84;72.24;101702.97;4881709;29;20338;-70
2023/10/17 10:32:07;;;;;;;10.07;9.17;;;;;;;10.89;70.77;101690.94;4882013;29;20605;-69
2023/10/17 10:34:37;;;;;;;10.40;9.17;;;;;;;10.93;71.13;101689.69;4882187;29;20193;-69
2023/10/17 10:37:04;;;;;;;10.07;9.47;;;;;;;11.02;70.67;101696.09;4881597;29;20209;-69
2023/10/17 10:39:30;;;;;;;9.87;9.07;;;;;;;11.00;70.14;101690.00;4881590;29;20717;-69
2023/10/17 10:41:59;;;;;;;9.83;9.27;;;;;;;10.94;70.51;101702.09;4881496;29;20247;-69
2023/10/17 10:44:25;;;;;;;9.77;8.97;;;;;;;10.97;69.43;101699.16;4881472;29;20194;-70
2023/10/17 10:46:53;;;;;;;9.17;8.47;;;;;;;11.00;69.52;101690.84;4881367;29;20220;-69
2023/10/17 10:49:30;;;;;;;16.97;9.37;;;;;;;11.16;69.81;101684.19;4881298;29;20197;-69
2023/10/17 10:51:58;;;;;;;9.33;8.67;;;;;;;11.21;69.46;101677.44;4881372;29;20208;-69
2023/10/17 10:54:45;;;;;;;12.60;8.97;;;;;;;11.27;69.93;101684.97;4881550;29;20213;-69
2023/10/17 10:57:12;;;;;;;9.43;8.57;;;;;;;11.32;68.60;101684.56;4881081;29;20205;-69
2023/10/17 10:59:52;;;;;;;8.83;8.27;;;;;;;11.35;68.66;101678.94;4881177;29;20249;-69
2023/10/17 11:02:20;;;;;;;8.07;7.63;;;;;;;11.40;68.65;101677.56;4881737;29;20609;-69
2023/10/17 11:04:49;;;;;;;9.50;7.47;;;;;;;11.46;67.51;101676.16;4881157;29;20201;-70
2023/10/17 11:07:22;;;;;;;7.23;6.87;;;;;;;11.48;66.28;101674.22;4880908;29;20224;-69
2023/10/17 11:10:10;;;;;;;7.77;7.27;;;;;;;11.68;68.12;101665.25;4881339;29;20186;-70
2023/10/17 11:12:38;;;;;;;6.57;6.47;;;;;;;11.82;67.01;101666.75;4880954;29;20650;-70
2023/10/17 11:15:11;;;;;;;7.03;6.53;;;;;;;11.94;65.63;101656.75;4881188;29;20189;-69
2023/10/17 11:17:39;;;;;;;6.33;5.93;;;;;;;11.96;64.70;101657.50;4881186;29;20260;-69
2023/10/17 11:20:14;;;;;;;5.93;5.70;;;;;;;11.99;65.26;101651.84;4881217;29;20181;-69
2023/10/17 11:22:42;;;;;;;6.70;6.50;;;;;;;11.93;64.16;101645.19;4881069;29;20548;-69
2023/10/17 11:25:13;;;;;;;6.33;5.97;;;;;;;11.89;65.34;101643.78;4880630;29;20280;-69
2023/10/17 11:30:35;;;;;;;6.33;5.67;;;;;;;12.01;63.00;101639.16;4880924;29;20209;-69
2023/10/17 11:33:04;;;;;;;5.47;5.33;;;;;;;12.05;65.20;101637.91;4880951;29;20193;-70
2023/10/17 11:35:34;;;;;;;5.13;5.03;;;;;;;12.04;63.23;101634.38;4881032;29;20594;-69
2023/10/17 11:38:02;;;;;;;5.50;5.27;;;;;;;12.02;64.06;101630.13;4881006;29;20234;-69
2023/10/17 11:40:43;;;;;;;7.50;6.27;;;;;;;12.10;63.38;101620.41;4881054;29;20193;-69
2023/10/17 11:43:28;;;;;;;5.20;5.00;;;;;;;12.12;64.20;101620.28;4880464;29;20185;-70
2023/10/17 11:45:59;;;;;;;5.60;5.23;;;;;;;12.23;63.45;101612.09;4880355;29;20269;-70
2023/10/17 11:48:27;;;;;;;5.07;4.97;;;;;;;12.22;62.35;101611.22;4880899;29;20192;-69
2023/10/17 11:51:07;;;;;;;5.87;5.43;;;;;;;12.18;61.66;101607.13;4880571;29;20537;-69
2023/10/17 11:53:34;;;;;;;4.63;4.53;;;;;;;12.17;61.04;101608.16;4880494;29;20181;-69
2023/10/17 11:56:01;;;;;;;5.43;5.23;;;;;;;12.07;60.66;101609.97;4880497;29;20236;-69
2023/10/17 11:58:32;;;;;;;5.93;4.23;;;;;;;12.20;61.29;101613.22;4880289;29;20571;-69
2023/10/17 12:00:59;;;;;;;5.17;4.87;;;;;;;12.15;61.62;101612.78;4880378;29;20638;-69
2023/10/17 12:03:27;;;;;;;4.90;4.60;;;;;;;12.22;60.83;101619.28;4880207;29;20272;-69
2023/10/17 12:05:57;;;;;;;4.50;4.40;;;;;;;12.29;60.45;101611.53;4880026;29;20245;-69
2023/10/17 12:08:29;;;;;;;11.83;4.17;;;;;;;12.34;60.53;101615.50;4880031;29;20197;-69
2023/10/17 12:10:55;;;;;;;5.00;4.60;;;;;;;12.36;60.41;101599.25;4880302;29;20221;-69
2023/10/17 12:13:22;;;;;;;6.00;5.60;;;;;;;12.39;60.70;101600.81;4880160;29;20223;-69
2023/10/17 12:15:48;;;;;;;6.10;5.70;;;;;;;12.43;61.20;101594.19;4879852;29;20355;-69
2023/10/17 12:18:15;;;;;;;6.47;6.00;;;;;;;12.56;61.21;101586.69;4879818;29;20217;-69
2023/10/17 12:20:42;;;;;;;7.20;6.70;;;;;;;12.64;62.46;101576.06;4880107;29;20177;-69
2023/10/17 12:23:12;;;;;;;8.87;8.23;;;;;;;12.76;62.46;101569.56;4879816;29;20604;-69
2023/10/17 12:25:42;;;;;;;8.43;7.83;;;;;;;12.80;64.23;101568.28;4879784;29;20224;-69
2023/10/17 12:28:09;;;;;;;8.43;7.90;;;;;;;12.63;64.63;101569.88;4879685;29;20244;-69
2023/10/17 12:30:41;;;;;;;8.50;8.00;;;;;;;12.65;65.32;101553.59;4879635;29;20197;-69
2023/10/17 12:33:08;;;;;;;8.43;7.83;;;;;;;12.65;65.88;101554.44;4879914;29;20174;-69
2023/10/17 12:35:37;;;;;;;8.00;7.57;;;;;;;12.84;64.44;101548.19;4879768;29;20223;-69
2023/10/17 12:38:14;;;;;;;7.90;7.53;;;;;;;12.85;65.76;101543.69;4879332;29;20242;-70
2023/10/17 12:40:42;;;;;;;8.23;7.63;;;;;;;12.90;65.37;101533.34;4879957;29;20213;-71
2023/10/17 12:43:11;;;;;;;8.20;7.67;;;;;;;12.83;65.07;101536.63;4879538;29;20201;-70
2023/10/17 12:45:38;;;;;;;7.83;7.47;;;;;;;12.65;63.18;101538.34;4879467;29;20706;-69
2023/10/17 12:48:08;;;;;;;6.57;6.47;;;;;;;12.61;62.92;101531.59;4879711;29;20268;-69
2023/10/17 12:50:35;;;;;;;8.27;7.73;;;;;;;12.52;63.23;101532.44;4879447;29;20232;-69
2023/10/17 12:53:01;;;;;;;8.03;7.47;;;;;;;12.49;63.53;101532.75;4879713;29;20197;-69
2023/10/17 12:55:28;;;;;;;7.57;7.27;;;;;;;12.64;64.33;101522.44;4879276;29;20217;-69
2023/10/17 12:57:55;;;;;;;7.83;7.40;;;;;;;12.71;63.76;101523.53;4879524;29;20189;-69
2023/10/17 13:00:26;;;;;;;7.77;7.37;;;;;;;12.60;63.99;101521.03;4879859;29;20193;-69
2023/10/17 13:02:53;;;;;;;7.30;7.00;;;;;;;12.64;63.52;101517.06;4879971;29;20221;-69
2023/10/17 13:05:20;;;;;;;6.90;6.00;;;;;;;12.54;62.16;101519.75;4879516;29;20212;-69
2023/10/17 13:07:47;;;;;;;5.67;5.53;;;;;;;12.46;61.40;101525.00;4879504;29;20616;-69
2023/10/17 13:10:14;;;;;;;6.03;5.63;;;;;;;12.41;61.45;101521.91;4879342;29;20662;-69
2023/10/17 13:12:40;;;;;;;5.27;5.17;;;;;;;12.51;63.12;101520.06;4879705;29;20200;-69
2023/10/17 13:15:08;;;;;;;7.33;4.87;;;;;;;12.59;62.18;101524.69;4879508;29;20193;-68
2023/10/17 13:17:35;;;;;;;5.40;4.97;;;;;;;12.64;62.02;101523.28;4879536;29;20198;-69
2023/10/17 13:20:10;;;;;;;5.23;5.13;;;;;;;12.62;62.10;101514.50;4879436;29;20197;-69
2023/10/17 13:22:47;;;;;;;4.67;4.57;;;;;;;12.45;61.58;101512.56;4879403;29;20536;-69
2023/10/17 13:25:14;;;;;;;5.07;4.87;;;;;;;12.45;61.96;101506.38;4879400;29;20213;-69
2023/10/17 13:27:41;;;;;;;4.90;4.70;;;;;;;12.48;62.14;101504.22;4879116;29;20213;-69
2023/10/17 13:30:08;;;;;;;4.63;4.43;;;;;;;12.44;62.12;101510.88;4879403;29;20197;-70
2023/10/17 13:32:34;;;;;;;12.33;5.60;;;;;;;12.40;62.77;101498.75;4879165;29;20208;-69
2023/10/17 13:35:01;;;;;;;5.00;4.77;;;;;;;12.48;62.89;101498.88;4879024;29;20205;-69
2023/10/17 13:37:27;;;;;;;5.73;5.47;;;;;;;12.48;62.40;101498.03;4879315;29;20197;-69
2023/10/17 13:39:55;;;;;;;5.73;5.63;;;;;;;12.52;63.31;101497.59;4879578;29;20194;-69
2023/10/17 13:42:22;;;;;;;4.77;4.57;;;;;;;12.61;61.79;101494.03;4878990;29;20201;-69
2023/10/17 13:44:49;;;;;;;5.27;5.23;;;;;;;12.52;61.77;101476.13;4879224;29;20193;-69
2023/10/17 13:47:16;;;;;;;4.97;4.53;;;;;;;12.62;62.74;101479.63;4878769;29;20718;-69
2023/10/17 13:49:43;;;;;;;5.37;5.07;;;;;;;12.48;62.53;101476.56;4881076;29;20726;-69